sensor_id;sensor_type;location;lat;lon;timestamp;temperature;humidity
22112;DHT22;11222;50.872;4.312;2023-06-14T00:04:00;22.60;75.70
22112;DHT22;11222;50.872;4.312;2023-06-14T00:06:28;22.50;75.50
22112;DHT22;11222;50.872;4.312;2023-06-14T00:08:54;22.40;75.10
22112;DHT22;11222;50.872;4.312;2023-06-14T00:11:20;22.30;75.50
22112;DHT22;11222;50.872;4.312;2023-06-14T00:13:46;22.20;75.70
22112;DHT22;11222;50.872;4.312;2023-06-14T00:16:12;22.20;75.80
22112;DHT22;11222;50.872;4.312;2023-06-14T00:18:38;22.10;76.50
22112;DHT22;11222;50.872;4.312;2023-06-14T00:21:04;22.00;78.40
22112;DHT22;11222;50.872;4.312;2023-06-14T00:23:30;22.10;77.80
22112;DHT22;11222;50.872;4.312;2023-06-14T00:25:56;22.10;76.70
22112;DHT22;11222;50.872;4.312;2023-06-14T00:28:22;22.10;77.00
22112;DHT22;11222;50.872;4.312;2023-06-14T00:30:47;22.10;77.60
22112;DHT22;11222;50.872;4.312;2023-06-14T00:33:13;22.10;78.40
22112;DHT22;11222;50.872;4.312;2023-06-14T00:35:39;22.10;77.70
22112;DHT22;11222;50.872;4.312;2023-06-14T00:38:05;22.10;77.50
22112;DHT22;11222;50.872;4.312;2023-06-14T00:40:31;21.90;77.10
22112;DHT22;11222;50.872;4.312;2023-06-14T00:42:56;21.80;78.40
22112;DHT22;11222;50.872;4.312;2023-06-14T00:45:22;21.80;78.60
22112;DHT22;11222;50.872;4.312;2023-06-14T00:47:49;21.80;78.60
22112;DHT22;11222;50.872;4.312;2023-06-14T00:50:16;21.80;78.40
22112;DHT22;11222;50.872;4.312;2023-06-14T00:52:42;21.80;78.60
22112;DHT22;11222;50.872;4.312;2023-06-14T00:55:08;21.70;79.20
22112;DHT22;11222;50.872;4.312;2023-06-14T00:57:34;21.80;79.40
22112;DHT22;11222;50.872;4.312;2023-06-14T01:00:03;21.90;79.40
22112;DHT22;11222;50.872;4.312;2023-06-14T01:02:30;21.90;79.10
22112;DHT22;11222;50.872;4.312;2023-06-14T01:04:55;22.00;78.60
22112;DHT22;11222;50.872;4.312;2023-06-14T01:07:53;21.80;80.60
22112;DHT22;11222;50.872;4.312;2023-06-14T01:13:32;21.90;79.90
22112;DHT22;11222;50.872;4.312;2023-06-14T01:15:59;21.80;81.10
22112;DHT22;11222;50.872;4.312;2023-06-14T01:18:24;21.70;81.80
22112;DHT22;11222;50.872;4.312;2023-06-14T01:20:51;21.70;81.00
22112;DHT22;11222;50.872;4.312;2023-06-14T01:23:19;21.70;80.70
22112;DHT22;11222;50.872;4.312;2023-06-14T01:25:46;21.60;80.90
22112;DHT22;11222;50.872;4.312;2023-06-14T01:28:13;21.60;81.00
22112;DHT22;11222;50.872;4.312;2023-06-14T01:30:41;21.50;80.80
22112;DHT22;11222;50.872;4.312;2023-06-14T01:33:15;21.40;81.00
22112;DHT22;11222;50.872;4.312;2023-06-14T01:35:45;21.50;81.90
22112;DHT22;11222;50.872;4.312;2023-06-14T01:38:12;21.50;82.20
22112;DHT22;11222;50.872;4.312;2023-06-14T01:40:39;21.40;81.90
22112;DHT22;11222;50.872;4.312;2023-06-14T01:43:05;21.40;82.60
22112;DHT22;11222;50.872;4.312;2023-06-14T01:45:33;21.40;82.30
22112;DHT22;11222;50.872;4.312;2023-06-14T01:47:59;21.30;82.80
22112;DHT22;11222;50.872;4.312;2023-06-14T01:50:29;21.30;82.60
22112;DHT22;11222;50.872;4.312;2023-06-14T01:52:55;21.30;83.40
22112;DHT22;11222;50.872;4.312;2023-06-14T01:55:21;21.10;83.70
22112;DHT22;11222;50.872;4.312;2023-06-14T01:57:47;21.00;84.40
22112;DHT22;11222;50.872;4.312;2023-06-14T02:00:14;21.00;84.20
22112;DHT22;11222;50.872;4.312;2023-06-14T02:02:40;20.90;84.30
22112;DHT22;11222;50.872;4.312;2023-06-14T02:05:06;20.80;85.70
22112;DHT22;11222;50.872;4.312;2023-06-14T02:07:33;20.80;85.40
22112;DHT22;11222;50.872;4.312;2023-06-14T02:09:59;20.90;86.00
22112;DHT22;11222;50.872;4.312;2023-06-14T02:12:25;20.80;86.70
22112;DHT22;11222;50.872;4.312;2023-06-14T02:14:51;20.80;86.80
22112;DHT22;11222;50.872;4.312;2023-06-14T02:17:17;20.80;86.90
22112;DHT22;11222;50.872;4.312;2023-06-14T02:19:42;20.80;86.30
22112;DHT22;11222;50.872;4.312;2023-06-14T02:22:08;20.90;86.20
22112;DHT22;11222;50.872;4.312;2023-06-14T02:24:34;20.90;87.10
22112;DHT22;11222;50.872;4.312;2023-06-14T02:27:01;20.90;86.80
22112;DHT22;11222;50.872;4.312;2023-06-14T02:29:27;20.80;86.60
22112;DHT22;11222;50.872;4.312;2023-06-14T02:31:52;20.70;87.40
22112;DHT22;11222;50.872;4.312;2023-06-14T02:34:18;20.70;87.70
22112;DHT22;11222;50.872;4.312;2023-06-14T02:36:45;20.70;87.50
22112;DHT22;11222;50.872;4.312;2023-06-14T02:39:11;20.60;87.30
22112;DHT22;11222;50.872;4.312;2023-06-14T02:41:37;20.50;87.60
22112;DHT22;11222;50.872;4.312;2023-06-14T02:44:03;20.30;88.20
22112;DHT22;11222;50.872;4.312;2023-06-14T02:46:29;20.30;90.10
22112;DHT22;11222;50.872;4.312;2023-06-14T02:48:54;20.30;89.90
22112;DHT22;11222;50.872;4.312;2023-06-14T02:51:20;20.30;89.40
22112;DHT22;11222;50.872;4.312;2023-06-14T02:53:46;20.20;90.00
22112;DHT22;11222;50.872;4.312;2023-06-14T02:56:11;20.20;90.20
22112;DHT22;11222;50.872;4.312;2023-06-14T02:58:38;20.00;90.40
22112;DHT22;11222;50.872;4.312;2023-06-14T03:01:05;20.00;90.50
22112;DHT22;11222;50.872;4.312;2023-06-14T03:03:31;20.10;90.90
22112;DHT22;11222;50.872;4.312;2023-06-14T03:05:57;19.90;91.30
22112;DHT22;11222;50.872;4.312;2023-06-14T03:08:22;20.00;91.40
22112;DHT22;11222;50.872;4.312;2023-06-14T03:10:52;19.90;91.30
22112;DHT22;11222;50.872;4.312;2023-06-14T03:13:18;19.80;92.10
22112;DHT22;11222;50.872;4.312;2023-06-14T03:15:48;19.80;92.10
22112;DHT22;11222;50.872;4.312;2023-06-14T03:18:18;19.70;92.30
22112;DHT22;11222;50.872;4.312;2023-06-14T03:20:44;19.80;92.50
22112;DHT22;11222;50.872;4.312;2023-06-14T03:23:11;19.90;92.30
22112;DHT22;11222;50.872;4.312;2023-06-14T03:25:37;19.80;92.40
22112;DHT22;11222;50.872;4.312;2023-06-14T03:28:04;19.80;92.80
22112;DHT22;11222;50.872;4.312;2023-06-14T03:30:30;19.70;92.70
22112;DHT22;11222;50.872;4.312;2023-06-14T03:32:56;19.70;93.20
22112;DHT22;11222;50.872;4.312;2023-06-14T03:35:23;19.70;93.40
22112;DHT22;11222;50.872;4.312;2023-06-14T03:37:49;19.70;93.20
22112;DHT22;11222;50.872;4.312;2023-06-14T03:40:17;19.70;93.20
22112;DHT22;11222;50.872;4.312;2023-06-14T03:42:43;19.60;93.60
22112;DHT22;11222;50.872;4.312;2023-06-14T03:45:09;19.60;93.40
22112;DHT22;11222;50.872;4.312;2023-06-14T03:47:35;19.50;93.70
22112;DHT22;11222;50.872;4.312;2023-06-14T03:50:02;19.50;94.00
22112;DHT22;11222;50.872;4.312;2023-06-14T03:52:29;19.50;94.50
22112;DHT22;11222;50.872;4.312;2023-06-14T03:54:55;19.20;94.70
22112;DHT22;11222;50.872;4.312;2023-06-14T03:57:22;19.20;95.40
22112;DHT22;11222;50.872;4.312;2023-06-14T03:59:48;19.30;95.30
22112;DHT22;11222;50.872;4.312;2023-06-14T04:02:14;19.30;95.60
22112;DHT22;11222;50.872;4.312;2023-06-14T04:04:41;19.20;95.90
22112;DHT22;11222;50.872;4.312;2023-06-14T04:07:12;19.20;96.10
22112;DHT22;11222;50.872;4.312;2023-06-14T04:09:39;19.10;96.50
22112;DHT22;11222;50.872;4.312;2023-06-14T04:12:05;19.10;96.70
22112;DHT22;11222;50.872;4.312;2023-06-14T04:14:31;19.20;96.60
22112;DHT22;11222;50.872;4.312;2023-06-14T04:16:58;19.30;96.60
22112;DHT22;11222;50.872;4.312;2023-06-14T04:19:24;19.40;96.30
22112;DHT22;11222;50.872;4.312;2023-06-14T04:21:49;19.70;95.80
22112;DHT22;11222;50.872;4.312;2023-06-14T04:24:15;20.00;95.20
22112;DHT22;11222;50.872;4.312;2023-06-14T04:26:43;20.30;94.40
22112;DHT22;11222;50.872;4.312;2023-06-14T04:29:14;20.60;93.30
22112;DHT22;11222;50.872;4.312;2023-06-14T04:31:42;20.80;93.10
22112;DHT22;11222;50.872;4.312;2023-06-14T04:34:07;21.10;92.40
22112;DHT22;11222;50.872;4.312;2023-06-14T04:36:34;21.40;91.70
22112;DHT22;11222;50.872;4.312;2023-06-14T04:39:03;21.70;91.50
22112;DHT22;11222;50.872;4.312;2023-06-14T04:41:30;21.80;90.80
22112;DHT22;11222;50.872;4.312;2023-06-14T04:43:59;21.90;90.10
22112;DHT22;11222;50.872;4.312;2023-06-14T04:46:30;22.20;90.90
22112;DHT22;11222;50.872;4.312;2023-06-14T04:48:57;22.50;89.90
22112;DHT22;11222;50.872;4.312;2023-06-14T04:51:27;22.60;88.60
22112;DHT22;11222;50.872;4.312;2023-06-14T04:53:58;22.60;88.40
22112;DHT22;11222;50.872;4.312;2023-06-14T04:56:24;22.60;88.20
22112;DHT22;11222;50.872;4.312;2023-06-14T04:58:55;22.60;87.00
22112;DHT22;11222;50.872;4.312;2023-06-14T05:01:22;22.40;88.40
22112;DHT22;11222;50.872;4.312;2023-06-14T05:03:51;21.60;90.00
22112;DHT22;11222;50.872;4.312;2023-06-14T05:06:17;21.00;91.70
22112;DHT22;11222;50.872;4.312;2023-06-14T05:08:43;20.50;91.60
22112;DHT22;11222;50.872;4.312;2023-06-14T05:11:08;20.40;92.20
22112;DHT22;11222;50.872;4.312;2023-06-14T05:13:34;20.40;92.60
22112;DHT22;11222;50.872;4.312;2023-06-14T05:16:00;20.40;92.60
22112;DHT22;11222;50.872;4.312;2023-06-14T05:18:26;20.40;92.60
22112;DHT22;11222;50.872;4.312;2023-06-14T05:20:52;20.30;92.50
22112;DHT22;11222;50.872;4.312;2023-06-14T05:23:18;20.20;92.90
22112;DHT22;11222;50.872;4.312;2023-06-14T05:25:44;20.20;93.10
22112;DHT22;11222;50.872;4.312;2023-06-14T05:28:10;20.10;93.50
22112;DHT22;11222;50.872;4.312;2023-06-14T05:30:38;20.20;93.30
22112;DHT22;11222;50.872;4.312;2023-06-14T05:33:03;20.30;93.20
22112;DHT22;11222;50.872;4.312;2023-06-14T05:35:29;20.40;93.20
22112;DHT22;11222;50.872;4.312;2023-06-14T05:37:55;20.40;93.20
22112;DHT22;11222;50.872;4.312;2023-06-14T05:40:20;20.50;93.30
22112;DHT22;11222;50.872;4.312;2023-06-14T05:42:46;20.60;93.30
22112;DHT22;11222;50.872;4.312;2023-06-14T05:45:12;20.50;92.90
22112;DHT22;11222;50.872;4.312;2023-06-14T05:47:37;20.50;93.00
22112;DHT22;11222;50.872;4.312;2023-06-14T05:50:03;20.40;93.20
22112;DHT22;11222;50.872;4.312;2023-06-14T05:52:29;20.50;93.60
22112;DHT22;11222;50.872;4.312;2023-06-14T05:54:55;20.60;93.30
22112;DHT22;11222;50.872;4.312;2023-06-14T05:57:21;20.50;93.10
22112;DHT22;11222;50.872;4.312;2023-06-14T05:59:46;20.50;93.50
22112;DHT22;11222;50.872;4.312;2023-06-14T06:02:18;20.70;93.00
22112;DHT22;11222;50.872;4.312;2023-06-14T06:04:44;20.90;93.10
22112;DHT22;11222;50.872;4.312;2023-06-14T06:07:09;21.00;92.90
22112;DHT22;11222;50.872;4.312;2023-06-14T06:09:35;21.00;93.00
22112;DHT22;11222;50.872;4.312;2023-06-14T06:12:01;21.00;92.60
22112;DHT22;11222;50.872;4.312;2023-06-14T06:14:26;21.00;92.70
22112;DHT22;11222;50.872;4.312;2023-06-14T06:16:53;20.80;92.80
22112;DHT22;11222;50.872;4.312;2023-06-14T06:19:19;20.90;93.10
22112;DHT22;11222;50.872;4.312;2023-06-14T06:21:45;21.10;92.70
22112;DHT22;11222;50.872;4.312;2023-06-14T06:24:10;21.10;92.50
22112;DHT22;11222;50.872;4.312;2023-06-14T06:26:36;21.20;92.20
22112;DHT22;11222;50.872;4.312;2023-06-14T06:29:02;21.50;92.20
22112;DHT22;11222;50.872;4.312;2023-06-14T06:31:28;21.50;91.30
22112;DHT22;11222;50.872;4.312;2023-06-14T06:33:55;21.50;91.70
22112;DHT22;11222;50.872;4.312;2023-06-14T06:36:21;21.50;91.50
22112;DHT22;11222;50.872;4.312;2023-06-14T06:38:47;21.60;91.30
22112;DHT22;11222;50.872;4.312;2023-06-14T06:41:13;21.70;91.30
22112;DHT22;11222;50.872;4.312;2023-06-14T06:43:39;21.80;91.00
22112;DHT22;11222;50.872;4.312;2023-06-14T06:46:05;21.70;90.90
22112;DHT22;11222;50.872;4.312;2023-06-14T06:48:30;21.80;91.20
22112;DHT22;11222;50.872;4.312;2023-06-14T06:50:56;22.00;91.40
22112;DHT22;11222;50.872;4.312;2023-06-14T06:53:22;22.40;90.70
22112;DHT22;11222;50.872;4.312;2023-06-14T06:55:48;22.60;90.20
22112;DHT22;11222;50.872;4.312;2023-06-14T06:58:14;22.70;89.10
22112;DHT22;11222;50.872;4.312;2023-06-14T07:00:40;22.70;88.30
22112;DHT22;11222;50.872;4.312;2023-06-14T07:03:06;22.50;89.30
22112;DHT22;11222;50.872;4.312;2023-06-14T07:05:32;22.50;90.00
22112;DHT22;11222;50.872;4.312;2023-06-14T07:07:58;22.70;89.40
22112;DHT22;11222;50.872;4.312;2023-06-14T07:10:23;22.80;88.30
22112;DHT22;11222;50.872;4.312;2023-06-14T07:12:52;22.90;87.90
22112;DHT22;11222;50.872;4.312;2023-06-14T07:15:18;23.20;87.70
22112;DHT22;11222;50.872;4.312;2023-06-14T07:17:43;23.40;86.70
22112;DHT22;11222;50.872;4.312;2023-06-14T07:20:09;24.10;86.00
22112;DHT22;11222;50.872;4.312;2023-06-14T07:22:42;24.50;84.10
22112;DHT22;11222;50.872;4.312;2023-06-14T07:25:09;25.20;82.20
22112;DHT22;11222;50.872;4.312;2023-06-14T07:27:35;25.80;80.20
22112;DHT22;11222;50.872;4.312;2023-06-14T07:30:01;26.60;79.20
22112;DHT22;11222;50.872;4.312;2023-06-14T07:32:27;27.50;76.20
22112;DHT22;11222;50.872;4.312;2023-06-14T07:34:52;27.70;73.60
22112;DHT22;11222;50.872;4.312;2023-06-14T07:37:18;26.90;74.30
22112;DHT22;11222;50.872;4.312;2023-06-14T07:39:43;27.70;73.60
22112;DHT22;11222;50.872;4.312;2023-06-14T07:42:09;29.40;70.70
22112;DHT22;11222;50.872;4.312;2023-06-14T07:44:35;29.50;67.60
22112;DHT22;11222;50.872;4.312;2023-06-14T07:47:01;30.30;66.30
22112;DHT22;11222;50.872;4.312;2023-06-14T07:49:33;30.40;65.00
22112;DHT22;11222;50.872;4.312;2023-06-14T07:51:59;30.70;63.50
22112;DHT22;11222;50.872;4.312;2023-06-14T07:54:24;30.40;63.90
22112;DHT22;11222;50.872;4.312;2023-06-14T07:56:52;30.70;62.60
22112;DHT22;11222;50.872;4.312;2023-06-14T07:59:18;29.20;64.60
22112;DHT22;11222;50.872;4.312;2023-06-14T08:01:44;29.50;65.00
22112;DHT22;11222;50.872;4.312;2023-06-14T08:04:13;30.50;64.30
22112;DHT22;11222;50.872;4.312;2023-06-14T08:06:39;31.10;63.10
22112;DHT22;11222;50.872;4.312;2023-06-14T08:09:04;32.10;63.90
22112;DHT22;11222;50.872;4.312;2023-06-14T08:11:31;33.40;60.40
22112;DHT22;11222;50.872;4.312;2023-06-14T08:13:57;34.40;58.70
22112;DHT22;11222;50.872;4.312;2023-06-14T08:16:23;32.70;59.10
22112;DHT22;11222;50.872;4.312;2023-06-14T08:18:49;32.30;59.50
22112;DHT22;11222;50.872;4.312;2023-06-14T08:21:15;32.70;59.10
22112;DHT22;11222;50.872;4.312;2023-06-14T08:23:41;33.80;57.50
22112;DHT22;11222;50.872;4.312;2023-06-14T08:26:09;33.70;56.20
22112;DHT22;11222;50.872;4.312;2023-06-14T08:28:34;33.90;55.90
22112;DHT22;11222;50.872;4.312;2023-06-14T08:31:00;33.80;54.80
22112;DHT22;11222;50.872;4.312;2023-06-14T08:33:27;33.20;56.50
22112;DHT22;11222;50.872;4.312;2023-06-14T08:35:52;33.00;57.20
22112;DHT22;11222;50.872;4.312;2023-06-14T08:38:18;33.70;55.90
22112;DHT22;11222;50.872;4.312;2023-06-14T08:40:46;34.60;55.80
22112;DHT22;11222;50.872;4.312;2023-06-14T08:43:13;34.30;54.70
22112;DHT22;11222;50.872;4.312;2023-06-14T08:45:39;34.00;56.20
22112;DHT22;11222;50.872;4.312;2023-06-14T08:48:07;34.00;56.10
22112;DHT22;11222;50.872;4.312;2023-06-14T08:50:32;33.00;56.10
22112;DHT22;11222;50.872;4.312;2023-06-14T08:53:01;32.40;57.40
22112;DHT22;11222;50.872;4.312;2023-06-14T08:55:28;33.20;57.00
22112;DHT22;11222;50.872;4.312;2023-06-14T08:57:56;32.20;57.70
22112;DHT22;11222;50.872;4.312;2023-06-14T09:00:26;31.90;59.00
22112;DHT22;11222;50.872;4.312;2023-06-14T09:02:53;33.20;57.40
22112;DHT22;11222;50.872;4.312;2023-06-14T09:05:27;32.90;56.70
22112;DHT22;11222;50.872;4.312;2023-06-14T09:07:53;32.60;58.20
22112;DHT22;11222;50.872;4.312;2023-06-14T09:10:20;32.90;57.40
22112;DHT22;11222;50.872;4.312;2023-06-14T09:12:46;33.90;56.70
22112;DHT22;11222;50.872;4.312;2023-06-14T09:15:12;34.40;56.10
22112;DHT22;11222;50.872;4.312;2023-06-14T09:17:39;35.20;55.00
22112;DHT22;11222;50.872;4.312;2023-06-14T09:20:07;35.70;54.00
22112;DHT22;11222;50.872;4.312;2023-06-14T09:22:39;36.50;52.70
22112;DHT22;11222;50.872;4.312;2023-06-14T09:25:05;36.20;52.40
22112;DHT22;11222;50.872;4.312;2023-06-14T09:27:32;35.80;53.60
22112;DHT22;11222;50.872;4.312;2023-06-14T09:29:58;34.10;54.60
22112;DHT22;11222;50.872;4.312;2023-06-14T09:32:25;32.60;57.50
22112;DHT22;11222;50.872;4.312;2023-06-14T09:34:50;31.60;58.40
22112;DHT22;11222;50.872;4.312;2023-06-14T09:37:30;32.80;57.60
22112;DHT22;11222;50.872;4.312;2023-06-14T09:39:57;31.90;58.00
22112;DHT22;11222;50.872;4.312;2023-06-14T09:42:23;33.00;58.10
22112;DHT22;11222;50.872;4.312;2023-06-14T09:44:52;33.80;58.00
22112;DHT22;11222;50.872;4.312;2023-06-14T09:47:19;34.70;56.60
22112;DHT22;11222;50.872;4.312;2023-06-14T09:49:45;34.60;53.50
22112;DHT22;11222;50.872;4.312;2023-06-14T09:52:16;34.30;54.60
22112;DHT22;11222;50.872;4.312;2023-06-14T09:54:44;34.80;54.90
22112;DHT22;11222;50.872;4.312;2023-06-14T09:57:20;34.80;54.90
22112;DHT22;11222;50.872;4.312;2023-06-14T09:59:48;35.20;54.00
22112;DHT22;11222;50.872;4.312;2023-06-14T10:02:29;34.10;55.10
22112;DHT22;11222;50.872;4.312;2023-06-14T10:05:07;35.10;53.10
22112;DHT22;11222;50.872;4.312;2023-06-14T10:07:40;34.80;52.20
22112;DHT22;11222;50.872;4.312;2023-06-14T10:10:06;34.00;53.50
22112;DHT22;11222;50.872;4.312;2023-06-14T10:12:32;34.70;52.70
22112;DHT22;11222;50.872;4.312;2023-06-14T10:14:59;33.20;51.50
22112;DHT22;11222;50.872;4.312;2023-06-14T10:17:29;32.30;53.50
22112;DHT22;11222;50.872;4.312;2023-06-14T10:20:42;32.70;53.30
22112;DHT22;11222;50.872;4.312;2023-06-14T10:23:19;33.10;53.20
22112;DHT22;11222;50.872;4.312;2023-06-14T10:25:50;34.50;52.30
22112;DHT22;11222;50.872;4.312;2023-06-14T10:28:20;35.50;48.90
22112;DHT22;11222;50.872;4.312;2023-06-14T10:31:10;35.30;49.60
22112;DHT22;11222;50.872;4.312;2023-06-14T10:33:40;34.40;50.90
22112;DHT22;11222;50.872;4.312;2023-06-14T10:39:16;34.80;50.90
22112;DHT22;11222;50.872;4.312;2023-06-14T10:41:52;36.00;48.90
22112;DHT22;11222;50.872;4.312;2023-06-14T10:46:48;33.90;50.80
22112;DHT22;11222;50.872;4.312;2023-06-14T10:49:18;32.80;51.60
22112;DHT22;11222;50.872;4.312;2023-06-14T10:51:49;33.70;51.20
22112;DHT22;11222;50.872;4.312;2023-06-14T10:54:16;34.40;49.40
22112;DHT22;11222;50.872;4.312;2023-06-14T10:56:50;36.20;48.10
22112;DHT22;11222;50.872;4.312;2023-06-14T10:59:18;36.00;47.70
22112;DHT22;11222;50.872;4.312;2023-06-14T11:04:59;33.60;49.40
22112;DHT22;11222;50.872;4.312;2023-06-14T11:10:36;34.80;48.80
22112;DHT22;11222;50.872;4.312;2023-06-14T11:13:03;35.20;47.40
22112;DHT22;11222;50.872;4.312;2023-06-14T11:15:29;35.40;47.70
22112;DHT22;11222;50.872;4.312;2023-06-14T11:17:56;36.40;46.10
22112;DHT22;11222;50.872;4.312;2023-06-14T11:20:26;35.70;47.70
22112;DHT22;11222;50.872;4.312;2023-06-14T11:22:52;35.70;46.40
22112;DHT22;11222;50.872;4.312;2023-06-14T11:25:18;36.00;46.90
22112;DHT22;11222;50.872;4.312;2023-06-14T11:27:44;35.80;46.00
22112;DHT22;11222;50.872;4.312;2023-06-14T11:30:11;34.70;46.40
22112;DHT22;11222;50.872;4.312;2023-06-14T11:32:37;35.50;45.70
22112;DHT22;11222;50.872;4.312;2023-06-14T11:35:04;34.60;47.10
22112;DHT22;11222;50.872;4.312;2023-06-14T11:37:32;36.10;46.10
22112;DHT22;11222;50.872;4.312;2023-06-14T11:40:01;36.20;44.70
22112;DHT22;11222;50.872;4.312;2023-06-14T11:42:29;35.60;45.10
22112;DHT22;11222;50.872;4.312;2023-06-14T11:44:55;36.40;45.20
22112;DHT22;11222;50.872;4.312;2023-06-14T11:47:22;36.80;44.70
22112;DHT22;11222;50.872;4.312;2023-06-14T11:49:48;35.50;45.40
22112;DHT22;11222;50.872;4.312;2023-06-14T11:52:14;35.40;47.10
22112;DHT22;11222;50.872;4.312;2023-06-14T11:54:40;35.60;46.20
22112;DHT22;11222;50.872;4.312;2023-06-14T11:57:09;34.90;46.40
22112;DHT22;11222;50.872;4.312;2023-06-14T11:59:39;33.20;48.60
22112;DHT22;11222;50.872;4.312;2023-06-14T12:02:06;31.30;50.80
22112;DHT22;11222;50.872;4.312;2023-06-14T12:04:32;30.50;50.70
22112;DHT22;11222;50.872;4.312;2023-06-14T12:07:11;30.40;51.80
22112;DHT22;11222;50.872;4.312;2023-06-14T12:10:25;30.50;50.50
22112;DHT22;11222;50.872;4.312;2023-06-14T12:12:27;30.20;50.00
22112;DHT22;11222;50.872;4.312;2023-06-14T12:14:54;30.00;51.80
22112;DHT22;11222;50.872;4.312;2023-06-14T12:17:20;29.50;51.80
22112;DHT22;11222;50.872;4.312;2023-06-14T12:19:46;29.00;52.90
22112;DHT22;11222;50.872;4.312;2023-06-14T12:22:13;28.60;53.60
22112;DHT22;11222;50.872;4.312;2023-06-14T12:24:42;28.10;53.70
22112;DHT22;11222;50.872;4.312;2023-06-14T12:27:08;28.20;53.50
22112;DHT22;11222;50.872;4.312;2023-06-14T12:29:34;28.10;53.80
22112;DHT22;11222;50.872;4.312;2023-06-14T12:32:00;28.10;53.50
22112;DHT22;11222;50.872;4.312;2023-06-14T12:34:28;28.30;53.00
22112;DHT22;11222;50.872;4.312;2023-06-14T12:36:56;28.30;52.80
22112;DHT22;11222;50.872;4.312;2023-06-14T12:39:22;28.30;54.20
22112;DHT22;11222;50.872;4.312;2023-06-14T12:41:49;28.40;54.30
22112;DHT22;11222;50.872;4.312;2023-06-14T12:44:15;28.30;53.70
22112;DHT22;11222;50.872;4.312;2023-06-14T12:46:44;28.30;53.10
22112;DHT22;11222;50.872;4.312;2023-06-14T12:49:11;27.90;54.10
22112;DHT22;11222;50.872;4.312;2023-06-14T12:51:38;27.60;54.40
22112;DHT22;11222;50.872;4.312;2023-06-14T12:54:04;27.60;54.40
22112;DHT22;11222;50.872;4.312;2023-06-14T12:56:30;27.50;54.70
22112;DHT22;11222;50.872;4.312;2023-06-14T12:58:56;27.50;55.60
22112;DHT22;11222;50.872;4.312;2023-06-14T13:01:21;27.80;55.30
22112;DHT22;11222;50.872;4.312;2023-06-14T13:03:47;28.10;55.00
22112;DHT22;11222;50.872;4.312;2023-06-14T13:06:13;28.10;55.30
22112;DHT22;11222;50.872;4.312;2023-06-14T13:08:39;27.80;55.10
22112;DHT22;11222;50.872;4.312;2023-06-14T13:11:05;27.30;55.30
22112;DHT22;11222;50.872;4.312;2023-06-14T13:13:30;27.40;55.70
22112;DHT22;11222;50.872;4.312;2023-06-14T13:15:56;27.30;55.80
22112;DHT22;11222;50.872;4.312;2023-06-14T13:18:22;27.50;55.70
22112;DHT22;11222;50.872;4.312;2023-06-14T13:20:49;27.70;55.10
22112;DHT22;11222;50.872;4.312;2023-06-14T13:23:16;27.80;55.90
22112;DHT22;11222;50.872;4.312;2023-06-14T13:25:41;27.50;54.90
22112;DHT22;11222;50.872;4.312;2023-06-14T13:28:07;27.50;55.40
22112;DHT22;11222;50.872;4.312;2023-06-14T13:30:34;27.50;55.80
22112;DHT22;11222;50.872;4.312;2023-06-14T13:33:00;27.70;56.30
22112;DHT22;11222;50.872;4.312;2023-06-14T13:35:26;28.00;55.70
22112;DHT22;11222;50.872;4.312;2023-06-14T13:37:52;28.10;54.40
22112;DHT22;11222;50.872;4.312;2023-06-14T13:40:18;28.20;54.20
22112;DHT22;11222;50.872;4.312;2023-06-14T13:42:43;28.20;54.30
22112;DHT22;11222;50.872;4.312;2023-06-14T13:45:11;28.10;53.80
22112;DHT22;11222;50.872;4.312;2023-06-14T13:47:37;27.80;53.70
22112;DHT22;11222;50.872;4.312;2023-06-14T13:50:03;27.70;54.00
22112;DHT22;11222;50.872;4.312;2023-06-14T13:52:29;27.40;54.50
22112;DHT22;11222;50.872;4.312;2023-06-14T13:54:55;27.30;55.00
22112;DHT22;11222;50.872;4.312;2023-06-14T13:57:20;27.40;55.50
22112;DHT22;11222;50.872;4.312;2023-06-14T13:59:47;27.50;55.10
22112;DHT22;11222;50.872;4.312;2023-06-14T14:02:13;27.90;54.20
22112;DHT22;11222;50.872;4.312;2023-06-14T14:04:39;28.00;54.40
22112;DHT22;11222;50.872;4.312;2023-06-14T14:07:05;27.90;53.40
22112;DHT22;11222;50.872;4.312;2023-06-14T14:09:35;27.60;53.30
22112;DHT22;11222;50.872;4.312;2023-06-14T14:12:01;27.10;54.00
22112;DHT22;11222;50.872;4.312;2023-06-14T14:14:31;27.10;53.70
22112;DHT22;11222;50.872;4.312;2023-06-14T14:16:59;27.00;54.10
22112;DHT22;11222;50.872;4.312;2023-06-14T14:19:25;27.10;54.10
22112;DHT22;11222;50.872;4.312;2023-06-14T14:21:51;27.10;54.50
22112;DHT22;11222;50.872;4.312;2023-06-14T14:24:18;27.10;53.80
22112;DHT22;11222;50.872;4.312;2023-06-14T14:26:44;27.10;53.80
22112;DHT22;11222;50.872;4.312;2023-06-14T14:29:13;27.10;53.60
22112;DHT22;11222;50.872;4.312;2023-06-14T14:31:38;27.20;53.60
22112;DHT22;11222;50.872;4.312;2023-06-14T14:34:04;27.30;53.30
22112;DHT22;11222;50.872;4.312;2023-06-14T14:36:30;27.30;53.20
22112;DHT22;11222;50.872;4.312;2023-06-14T14:38:56;27.30;53.50
22112;DHT22;11222;50.872;4.312;2023-06-14T14:41:22;27.40;52.70
22112;DHT22;11222;50.872;4.312;2023-06-14T14:43:47;27.60;52.20
22112;DHT22;11222;50.872;4.312;2023-06-14T14:46:13;27.80;51.30
22112;DHT22;11222;50.872;4.312;2023-06-14T14:48:38;27.80;51.20
22112;DHT22;11222;50.872;4.312;2023-06-14T14:51:04;27.70;51.30
22112;DHT22;11222;50.872;4.312;2023-06-14T14:53:30;27.70;52.20
22112;DHT22;11222;50.872;4.312;2023-06-14T14:55:55;27.90;52.40
22112;DHT22;11222;50.872;4.312;2023-06-14T14:58:21;27.80;51.30
22112;DHT22;11222;50.872;4.312;2023-06-14T15:00:47;27.80;51.40
22112;DHT22;11222;50.872;4.312;2023-06-14T15:03:14;27.80;51.90
22112;DHT22;11222;50.872;4.312;2023-06-14T15:05:40;27.70;51.30
22112;DHT22;11222;50.872;4.312;2023-06-14T15:08:06;27.50;51.90
22112;DHT22;11222;50.872;4.312;2023-06-14T15:10:39;27.50;52.00
22112;DHT22;11222;50.872;4.312;2023-06-14T15:13:08;27.60;52.00
22112;DHT22;11222;50.872;4.312;2023-06-14T15:15:35;27.80;51.90
22112;DHT22;11222;50.872;4.312;2023-06-14T15:18:00;27.90;50.70
22112;DHT22;11222;50.872;4.312;2023-06-14T15:20:26;27.90;50.80
22112;DHT22;11222;50.872;4.312;2023-06-14T15:22:53;27.90;51.40
22112;DHT22;11222;50.872;4.312;2023-06-14T15:25:21;27.90;51.20
22112;DHT22;11222;50.872;4.312;2023-06-14T15:27:46;27.70;51.70
22112;DHT22;11222;50.872;4.312;2023-06-14T15:30:12;27.70;51.60
22112;DHT22;11222;50.872;4.312;2023-06-14T15:32:39;27.70;51.10
22112;DHT22;11222;50.872;4.312;2023-06-14T15:35:05;27.50;50.90
22112;DHT22;11222;50.872;4.312;2023-06-14T15:37:31;27.40;51.00
22112;DHT22;11222;50.872;4.312;2023-06-14T15:39:57;27.30;51.10
22112;DHT22;11222;50.872;4.312;2023-06-14T15:42:23;27.50;51.50
22112;DHT22;11222;50.872;4.312;2023-06-14T15:44:49;27.60;51.50
22112;DHT22;11222;50.872;4.312;2023-06-14T15:47:14;27.30;51.90